Time;durP1;ratioP1;P1;durP2;ratioP2;P2;SDS_P1;SDS_P2;PMS_P1;PMS_P2;Temp;Humidity;BMP_temperature;BMP_pressure;BME280_temperature;BME280_humidity;BME280_pressure;Samples;Min_cycle;Max_cycle;Signal;HPM_P1;HPM_P2
2022/01/05 00:02:21;;;;;;;;;;;19.80;58.90;;;;;;5032996;28;1232;-72
2022/01/05 00:04:47;;;;;;;;;;;19.80;58.90;;;;;;5045775;28;879;-73
2022/01/05 00:07:12;;;;;;;;;;;19.80;58.90;;;;;;5033159;28;1371;-71
2022/01/05 00:09:38;;;;;;;;;;;19.80;58.90;;;;;;5039136;28;1393;-73
2022/01/05 00:12:03;;;;;;;;;;;19.80;58.90;;;;;;5051316;28;1379;-73
2022/01/05 00:14:29;;;;;;;;;;;19.80;59.00;;;;;;5045585;28;1596;-72
2022/01/05 00:16:54;;;;;;;;;;;19.80;59.00;;;;;;5032803;28;1953;-71
2022/01/05 00:19:20;;;;;;;;;;;19.70;59.00;;;;;;5031334;28;1677;-71
2022/01/05 00:21:45;;;;;;;;;;;19.70;59.00;;;;;;5031413;28;1369;-71
2022/01/05 00:24:11;;;;;;;;;;;19.70;59.00;;;;;;5030250;28;1445;-71
2022/01/05 00:26:36;;;;;;;;;;;19.80;59.00;;;;;;5032434;28;1549;-71
2022/01/05 00:29:02;;;;;;;;;;;19.70;59.00;;;;;;5032059;28;1724;-71
2022/01/05 00:31:27;;;;;;;;;;;19.70;59.10;;;;;;5030681;28;1636;-71
2022/01/05 00:33:53;;;;;;;;;;;19.70;59.00;;;;;;5030038;28;1167;-71
2022/01/05 00:36:18;;;;;;;;;;;19.70;59.10;;;;;;5031791;28;1902;-71
2022/01/05 00:38:44;;;;;;;;;;;19.70;59.10;;;;;;5031930;28;1294;-71
2022/01/05 00:41:09;;;;;;;;;;;19.70;59.10;;;;;;5032269;28;1726;-72
2022/01/05 00:43:35;;;;;;;;;;;19.70;59.10;;;;;;5029944;28;1421;-72
2022/01/05 00:46:00;;;;;;;;;;;19.70;59.70;;;;;;5032116;28;1550;-72
2022/01/05 00:48:26;;;;;;;;;;;19.70;59.10;;;;;;5030604;28;1587;-72
2022/01/05 00:50:51;;;;;;;;;;;19.70;59.20;;;;;;5030491;28;1651;-73
2022/01/05 00:53:17;;;;;;;;;;;19.70;59.20;;;;;;5073242;22;3810;-68
2022/01/05 00:55:42;;;;;;;;;;;19.60;59.20;;;;;;5052665;28;723;-69
2022/01/05 00:58:07;;;;;;;;;;;19.70;59.20;;;;;;5047540;28;1976;-68
2022/01/05 01:00:33;;;;;;;;;;;19.60;59.20;;;;;;5031360;28;767;-68
2022/01/05 01:02:58;;;;;;;;;;;19.60;59.20;;;;;;5023005;28;1200;-69
2022/01/05 01:05:24;;;;;;;;;;;19.60;59.20;;;;;;5021556;28;1338;-67
2022/01/05 01:07:49;;;;;;;;;;;19.60;59.20;;;;;;5025975;28;1108;-67
2022/01/05 01:10:14;;;;;;;;;;;19.60;59.30;;;;;;5020328;28;1358;-68
2022/01/05 01:12:40;;;;;;;;;;;19.60;59.30;;;;;;5025814;28;1268;-68
2022/01/05 01:15:06;;;;;;;;;;;19.60;59.30;;;;;;5024470;28;1251;-67
2022/01/05 01:17:31;;;;;;;;;;;19.60;59.90;;;;;;5029658;28;1963;-68
2022/01/05 01:19:57;;;;;;;;;;;19.60;59.30;;;;;;5028739;28;1208;-67
2022/01/05 01:22:23;;;;;;;;;;;19.60;59.30;;;;;;5026243;28;1289;-67
2022/01/05 01:24:48;;;;;;;;;;;19.60;59.40;;;;;;5027287;28;1183;-67
2022/01/05 01:27:14;;;;;;;;;;;19.60;59.40;;;;;;5025689;28;1215;-68
2022/01/05 01:29:39;;;;;;;;;;;19.60;59.40;;;;;;5030969;28;1246;-68
2022/01/05 01:32:05;;;;;;;;;;;19.60;59.40;;;;;;5035369;28;1280;-68
2022/01/05 01:34:30;;;;;;;;;;;19.60;59.40;;;;;;5035381;28;1130;-68
2022/01/05 01:36:55;;;;;;;;;;;19.50;59.40;;;;;;5034500;28;1890;-68
2022/01/05 01:39:21;;;;;;;;;;;19.50;59.40;;;;;;5034176;28;1275;-68
2022/01/05 01:41:46;;;;;;;;;;;19.60;59.40;;;;;;5035154;28;1315;-68
2022/01/05 01:44:12;;;;;;;;;;;19.60;59.50;;;;;;5033646;28;1279;-68
2022/01/05 01:46:37;;;;;;;;;;;19.50;59.40;;;;;;5035127;28;1454;-68
2022/01/05 01:49:03;;;;;;;;;;;19.50;59.40;;;;;;5034796;28;1419;-69
2022/01/05 01:51:28;;;;;;;;;;;19.50;59.50;;;;;;5033626;28;1224;-68
2022/01/05 01:53:53;;;;;;;;;;;19.50;59.50;;;;;;5034816;28;1064;-68
2022/01/05 01:56:19;;;;;;;;;;;19.50;59.50;;;;;;5034023;28;1910;-68
2022/01/05 01:58:48;;;;;;;;;;;19.50;59.50;;;;;;5034556;28;1138;-68
2022/01/05 02:01:13;;;;;;;;;;;19.50;59.50;;;;;;5030692;28;1272;-68
2022/01/05 02:03:39;;;;;;;;;;;19.50;59.50;;;;;;5024766;28;1545;-69
2022/01/05 02:06:04;;;;;;;;;;;19.50;59.50;;;;;;5035285;28;941;-67
2022/01/05 02:08:30;;;;;;;;;;;19.50;59.50;;;;;;5032882;28;1087;-67
2022/01/05 02:10:55;;;;;;;;;;;19.50;59.50;;;;;;5031900;28;1276;-69
2022/01/05 02:13:21;;;;;;;;;;;19.50;59.50;;;;;;5034547;28;1083;-67
2022/01/05 02:15:46;;;;;;;;;;;19.50;59.50;;;;;;5020802;28;1115;-68
2022/01/05 02:18:58;;;;;;;;;;;19.50;59.60;;;;;;5033720;28;1902;-68
2022/01/05 02:21:01;;;;;;;;;;;19.50;59.60;;;;;;5034113;28;1286;-67
2022/01/05 02:23:26;;;;;;;;;;;19.50;59.60;;;;;;5033216;28;1142;-67
2022/01/05 02:25:51;;;;;;;;;;;19.50;59.60;;;;;;5034573;28;1025;-69
2022/01/05 02:28:17;;;;;;;;;;;19.50;59.60;;;;;;5033598;28;1126;-67
2022/01/05 02:30:42;;;;;;;;;;;19.50;59.60;;;;;;5032870;28;1150;-68
2022/01/05 02:33:08;;;;;;;;;;;19.50;59.60;;;;;;5033519;28;1278;-69
2022/01/05 02:35:33;;;;;;;;;;;19.50;59.70;;;;;;5034669;28;1071;-67
2022/01/05 02:37:59;;;;;;;;;;;19.40;59.60;;;;;;5033751;28;1910;-67
2022/01/05 02:40:25;;;;;;;;;;;19.40;59.60;;;;;;5033255;28;1446;-69
2022/01/05 02:42:54;;;;;;;;;;;19.40;59.70;;;;;;5032392;28;1424;-68
2022/01/05 02:45:19;;;;;;;;;;;19.40;59.70;;;;;;5033203;28;1092;-68
2022/01/05 02:47:44;;;;;;;;;;;19.40;59.70;;;;;;5033992;28;1119;-68
2022/01/05 02:50:10;;;;;;;;;;;19.40;59.70;;;;;;5034091;28;1067;-68
2022/01/05 02:52:36;;;;;;;;;;;19.40;59.70;;;;;;5016249;28;1354;-68
2022/01/05 02:55:02;;;;;;;;;;;19.40;59.70;;;;;;5033441;28;1377;-68
2022/01/05 02:57:28;;;;;;;;;;;19.40;59.70;;;;;;5033327;28;1894;-68
2022/01/05 02:59:54;;;;;;;;;;;19.40;59.70;;;;;;5034770;28;1051;-68
2022/01/05 03:02:19;;;;;;;;;;;19.40;59.70;;;;;;5020725;28;1291;-68
2022/01/05 03:04:45;;;;;;;;;;;19.40;59.70;;;;;;5033517;28;1286;-68
2022/01/05 03:07:10;;;;;;;;;;;19.40;59.80;;;;;;5034145;28;1432;-68
2022/01/05 03:09:36;;;;;;;;;;;19.40;59.80;;;;;;5033687;28;1333;-68
2022/01/05 03:12:01;;;;;;;;;;;19.40;59.80;;;;;;5033098;28;1212;-67
2022/01/05 03:14:27;;;;;;;;;;;19.40;59.80;;;;;;5031954;28;1012;-68
2022/01/05 03:16:52;;;;;;;;;;;19.40;59.80;;;;;;5032321;28;2059;-68
2022/01/05 03:19:17;;;;;;;;;;;19.40;59.80;;;;;;5031777;28;1092;-68
2022/01/05 03:21:43;;;;;;;;;;;19.40;59.80;;;;;;5033942;28;1275;-67
2022/01/05 03:24:08;;;;;;;;;;;19.30;59.70;;;;;;5033490;28;1324;-68
2022/01/05 03:26:34;;;;;;;;;;;19.40;59.80;;;;;;5033967;28;1076;-69
2022/01/05 03:28:59;;;;;;;;;;;19.40;59.80;;;;;;5033019;28;1283;-68
2022/01/05 03:31:24;;;;;;;;;;;19.40;59.80;;;;;;5031581;28;1217;-68
2022/01/05 03:33:50;;;;;;;;;;;19.40;59.80;;;;;;5031190;28;1178;-68
2022/01/05 03:36:15;;;;;;;;;;;19.40;60.50;;;;;;5031887;28;1898;-69
2022/01/05 03:38:41;;;;;;;;;;;19.40;59.80;;;;;;5031213;28;1282;-68
2022/01/05 03:41:06;;;;;;;;;;;19.40;59.90;;;;;;5032723;28;1369;-68
2022/01/05 03:43:32;;;;;;;;;;;19.30;59.80;;;;;;5032281;28;1338;-68
2022/01/05 03:45:57;;;;;;;;;;;19.40;59.90;;;;;;5032978;28;1462;-69
2022/01/05 03:48:22;;;;;;;;;;;19.40;59.90;;;;;;5032752;28;1170;-69
2022/01/05 03:50:48;;;;;;;;;;;19.30;59.80;;;;;;5032803;28;1126;-68
2022/01/05 03:53:13;;;;;;;;;;;19.40;59.90;;;;;;5032412;28;1377;-70
2022/01/05 03:55:39;;;;;;;;;;;19.30;59.80;;;;;;5031777;28;1150;-68
2022/01/05 03:58:05;;;;;;;;;;;19.30;59.80;;;;;;5015133;28;1910;-69
2022/01/05 04:00:30;;;;;;;;;;;19.30;59.90;;;;;;5031939;28;1087;-69
2022/01/05 04:02:56;;;;;;;;;;;19.30;59.90;;;;;;5032520;28;1363;-73
2022/01/05 04:05:21;;;;;;;;;;;19.30;59.90;;;;;;5033007;28;1181;-71
2022/01/05 04:07:47;;;;;;;;;;;19.30;59.90;;;;;;5031317;28;1030;-69
2022/01/05 04:10:12;;;;;;;;;;;19.30;59.90;;;;;;5032770;28;1093;-69
2022/01/05 04:12:38;;;;;;;;;;;19.30;59.90;;;;;;5031917;28;1351;-73
2022/01/05 04:15:03;;;;;;;;;;;19.30;59.90;;;;;;5032386;28;1111;-69
2022/01/05 04:17:29;;;;;;;;;;;19.30;59.90;;;;;;5031546;28;1955;-66
2022/01/05 04:19:54;;;;;;;;;;;19.30;59.90;;;;;;5032114;28;1324;-67
2022/01/05 04:22:20;;;;;;;;;;;19.30;59.90;;;;;;5032263;28;1280;-68
2022/01/05 04:24:45;;;;;;;;;;;19.30;59.90;;;;;;5030762;28;1058;-66
2022/01/05 04:27:10;;;;;;;;;;;19.30;60.00;;;;;;5030697;28;1270;-70
2022/01/05 04:29:36;;;;;;;;;;;19.30;59.90;;;;;;5032880;28;1087;-69
2022/01/05 04:32:01;;;;;;;;;;;19.30;60.00;;;;;;5032493;28;1352;-69
2022/01/05 04:34:27;;;;;;;;;;;19.30;60.00;;;;;;5030467;28;1378;-70
2022/01/05 04:36:52;;;;;;;;;;;19.30;60.00;;;;;;5031109;28;1961;-66
2022/01/05 04:39:18;;;;;;;;;;;19.30;60.00;;;;;;5032612;28;718;-68
2022/01/05 04:41:43;;;;;;;;;;;19.30;60.00;;;;;;5031351;28;1394;-69
2022/01/05 04:44:08;;;;;;;;;;;19.30;60.00;;;;;;5032731;28;723;-68
2022/01/05 04:46:34;;;;;;;;;;;19.30;60.00;;;;;;5031541;28;964;-67
2022/01/05 04:48:59;;;;;;;;;;;19.30;60.00;;;;;;5033915;28;1608;-68
2022/01/05 04:51:25;;;;;;;;;;;19.20;60.00;;;;;;5035174;28;1279;-68
2022/01/05 04:53:51;;;;;;;;;;;19.30;60.00;;;;;;5036608;28;1013;-69
2022/01/05 04:56:17;;;;;;;;;;;19.30;60.00;;;;;;5034897;28;1918;-68
2022/01/05 04:58:42;;;;;;;;;;;19.30;60.00;;;;;;5035957;28;1320;-69
2022/01/05 05:01:07;;;;;;;;;;;19.30;60.10;;;;;;5034574;28;1361;-70
2022/01/05 05:03:33;;;;;;;;;;;19.30;60.10;;;;;;5035972;28;940;-70
2022/01/05 05:05:58;;;;;;;;;;;19.30;60.10;;;;;;5036049;28;1108;-70
2022/01/05 05:08:24;;;;;;;;;;;19.20;60.00;;;;;;5034762;28;1403;-69
2022/01/05 05:10:49;;;;;;;;;;;19.30;60.20;;;;;;5035396;28;1325;-69
2022/01/05 05:13:15;;;;;;;;;;;19.30;60.00;;;;;;5035012;28;1203;-70
2022/01/05 05:15:40;;;;;;;;;;;19.30;59.90;;;;;;5035704;28;1311;-69
2022/01/05 05:18:06;;;;;;;;;;;19.30;59.90;;;;;;5035906;28;1898;-71
2022/01/05 05:20:32;;;;;;;;;;;19.40;59.80;;;;;;5034362;28;1190;-70
2022/01/05 05:22:58;;;;;;;;;;;19.40;59.70;;;;;;5033797;28;1702;-71
2022/01/05 05:25:23;;;;;;;;;;;19.40;59.70;;;;;;5032845;28;1300;-70
2022/01/05 05:27:49;;;;;;;;;;;19.40;59.50;;;;;;5014642;28;1167;-68
2022/01/05 05:30:14;;;;;;;;;;;19.50;59.50;;;;;;5031045;28;1427;-69
2022/01/05 05:32:40;;;;;;;;;;;19.50;59.40;;;;;;5035154;28;1412;-69
2022/01/05 05:35:05;;;;;;;;;;;19.60;59.30;;;;;;5033524;28;1350;-70
2022/01/05 05:37:31;;;;;;;;;;;19.50;59.20;;;;;;5035169;28;1898;-70
2022/01/05 05:39:57;;;;;;;;;;;19.60;59.10;;;;;;5034967;28;1281;-69
2022/01/05 05:42:22;;;;;;;;;;;19.60;59.00;;;;;;5035390;28;1359;-69
2022/01/05 05:44:47;;;;;;;;;;;19.70;59.00;;;;;;5034740;28;1284;-69
2022/01/05 05:47:13;;;;;;;;;;;19.70;58.90;;;;;;5033737;28;1075;-69
2022/01/05 05:49:38;;;;;;;;;;;19.70;58.90;;;;;;5035046;28;1095;-69
2022/01/05 05:52:04;;;;;;;;;;;19.70;58.80;;;;;;5034872;28;1358;-68
2022/01/05 05:54:30;;;;;;;;;;;19.70;58.70;;;;;;5034195;28;1319;-68
2022/01/05 05:56:55;;;;;;;;;;;19.80;58.70;;;;;;5034686;28;1902;-71
2022/01/05 05:59:21;;;;;;;;;;;19.80;58.70;;;;;;5034543;28;1103;-71
2022/01/05 06:01:46;;;;;;;;;;;19.80;58.60;;;;;;5033558;28;1461;-71
2022/01/05 06:04:12;;;;;;;;;;;19.80;59.20;;;;;;5034099;28;1088;-71
2022/01/05 06:06:37;;;;;;;;;;;19.80;58.50;;;;;;5034808;28;1419;-70
2022/01/05 06:09:03;;;;;;;;;;;19.80;58.50;;;;;;5035056;28;1119;-68
2022/01/05 06:11:28;;;;;;;;;;;19.80;58.50;;;;;;5036407;28;1719;-69
2022/01/05 06:13:54;;;;;;;;;;;19.80;58.50;;;;;;5034926;28;1278;-69
2022/01/05 06:16:20;;;;;;;;;;;19.80;58.40;;;;;;5035089;28;1979;-69
2022/01/05 06:18:45;;;;;;;;;;;19.90;58.40;;;;;;5034417;28;1376;-68
2022/01/05 06:21:11;;;;;;;;;;;19.90;58.40;;;;;;5034525;28;1376;-68
2022/01/05 06:23:36;;;;;;;;;;;19.90;58.40;;;;;;5032703;28;1305;-68
2022/01/05 06:26:01;;;;;;;;;;;19.90;58.40;;;;;;5034653;28;1091;-68
2022/01/05 06:28:27;;;;;;;;;;;19.90;58.40;;;;;;5034448;28;1341;-68
2022/01/05 06:30:52;;;;;;;;;;;19.90;58.30;;;;;;5034061;28;1258;-69
2022/01/05 06:33:18;;;;;;;;;;;19.90;58.40;;;;;;5033701;28;1437;-69
2022/01/05 06:35:43;;;;;;;;;;;19.90;58.30;;;;;;5034459;28;1280;-68
2022/01/05 06:38:09;;;;;;;;;;;19.90;58.30;;;;;;5033902;28;1894;-68
2022/01/05 06:40:35;;;;;;;;;;;19.90;58.30;;;;;;5034027;28;1134;-70
2022/01/05 06:43:01;;;;;;;;;;;19.90;58.30;;;;;;5033355;28;1313;-69
2022/01/05 06:45:27;;;;;;;;;;;19.90;58.30;;;;;;5034140;28;1290;-69
2022/01/05 06:47:52;;;;;;;;;;;19.90;58.30;;;;;;5033432;28;1083;-69
2022/01/05 06:50:18;;;;;;;;;;;19.90;58.30;;;;;;5034787;28;1097;-69
2022/01/05 06:52:44;;;;;;;;;;;19.90;58.30;;;;;;5052965;22;2704;-73
2022/01/05 06:55:09;;;;;;;;;;;19.90;58.30;;;;;;5052146;28;1477;-73
2022/01/05 06:57:37;;;;;;;;;;;19.90;58.20;;;;;;5069388;28;1922;-72
2022/01/05 07:00:03;;;;;;;;;;;19.90;58.20;;;;;;5044872;28;1602;-72
2022/01/05 07:02:28;;;;;;;;;;;20.00;58.30;;;;;;5034399;28;1392;-72
2022/01/05 07:04:54;;;;;;;;;;;19.90;58.20;;;;;;5048602;28;1715;-72
2022/01/05 07:07:19;;;;;;;;;;;19.90;58.20;;;;;;5034160;28;1289;-72
2022/01/05 07:09:45;;;;;;;;;;;19.90;58.20;;;;;;5033445;28;1486;-73
2022/01/05 07:12:10;;;;;;;;;;;19.90;58.20;;;;;;5025254;28;1863;-70
2022/01/05 07:14:36;;;;;;;;;;;20.00;58.20;;;;;;5024429;28;2139;-71
2022/01/05 07:17:01;;;;;;;;;;;20.00;58.20;;;;;;5028418;28;1902;-70
2022/01/05 07:19:26;;;;;;;;;;;20.00;58.20;;;;;;5048254;28;1544;-70
2022/01/05 07:21:52;;;;;;;;;;;19.90;58.20;;;;;;5033687;28;1471;-68
2022/01/05 07:24:19;;;;;;;;;;;20.00;58.20;;;;;;5032063;28;1682;-69
2022/01/05 07:26:45;;;;;;;;;;;20.00;58.20;;;;;;5031669;28;1365;-70
2022/01/05 07:29:14;;;;;;;;;;;20.00;58.20;;;;;;5047592;28;1220;-71
2022/01/05 07:31:39;;;;;;;;;;;20.00;58.20;;;;;;5048454;28;1352;-70
2022/01/05 07:34:10;;;;;;;;;;;19.90;58.20;;;;;;5088653;27;1724;-70
2022/01/05 07:36:36;;;;;;;;;;;20.00;58.20;;;;;;5071948;28;2325;-70
2022/01/05 07:39:03;;;;;;;;;;;19.90;58.10;;;;;;5092427;28;1190;-71
2022/01/05 07:41:29;;;;;;;;;;;19.90;58.10;;;;;;5118532;28;1357;-70
2022/01/05 07:43:54;;;;;;;;;;;19.90;58.10;;;;;;5079651;28;1960;-71
2022/01/05 07:46:19;;;;;;;;;;;20.00;58.20;;;;;;5052781;28;1362;-70
2022/01/05 07:48:46;;;;;;;;;;;20.00;58.20;;;;;;5073423;28;1495;-70
2022/01/05 07:51:12;;;;;;;;;;;20.00;58.10;;;;;;5068716;28;1387;-70
2022/01/05 07:53:37;;;;;;;;;;;19.90;58.10;;;;;;5083116;28;2024;-69
2022/01/05 07:56:02;;;;;;;;;;;20.00;58.10;;;;;;5063605;28;1456;-70
2022/01/05 07:58:28;;;;;;;;;;;20.10;58.10;;;;;;5059827;28;2227;-68
2022/01/05 08:00:53;;;;;;;;;;;20.10;57.90;;;;;;5047429;28;2260;-68
2022/01/05 08:03:19;;;;;;;;;;;20.30;57.90;;;;;;5079921;28;1555;-68
2022/01/05 08:05:44;;;;;;;;;;;20.40;57.70;;;;;;5063802;28;1586;-69
2022/01/05 08:08:09;;;;;;;;;;;20.50;57.60;;;;;;5061182;28;1115;-70
2022/01/05 08:10:35;;;;;;;;;;;20.60;57.30;;;;;;5063456;28;1528;-69
2022/01/05 08:13:00;;;;;;;;;;;20.70;57.00;;;;;;5100963;28;1955;-70
2022/01/05 08:15:26;;;;;;;;;;;20.80;56.80;;;;;;5087593;28;1439;-69
2022/01/05 08:17:51;;;;;;;;;;;21.00;56.50;;;;;;5101955;28;1375;-69
2022/01/05 08:20:17;;;;;;;;;;;21.10;56.30;;;;;;5095236;28;1572;-69
2022/01/05 08:22:44;;;;;;;;;;;21.10;56.00;;;;;;5068549;28;1379;-70
2022/01/05 08:25:09;;;;;;;;;;;21.20;55.80;;;;;;5101057;28;1610;-69
2022/01/05 08:27:35;;;;;;;;;;;21.30;55.60;;;;;;5101635;28;1653;-69
2022/01/05 08:30:04;;;;;;;;;;;21.40;55.40;;;;;;5068594;28;1330;-69
2022/01/05 08:32:31;;;;;;;;;;;21.40;55.20;;;;;;5063610;28;1976;-69
2022/01/05 08:34:56;;;;;;;;;;;21.50;55.10;;;;;;5081659;28;1201;-70
2022/01/05 08:37:22;;;;;;;;;;;21.60;55.00;;;;;;5089047;28;1139;-70
2022/01/05 08:39:50;;;;;;;;;;;21.60;54.80;;;;;;5088902;28;1586;-70
2022/01/05 08:42:15;;;;;;;;;;;21.60;54.70;;;;;;5089109;28;1595;-70
2022/01/05 08:44:41;;;;;;;;;;;21.70;54.70;;;;;;5079444;28;1580;-70
2022/01/05 08:47:07;;;;;;;;;;;21.70;54.60;;;;;;5057464;28;1665;-70
2022/01/05 08:49:33;;;;;;;;;;;21.80;54.50;;;;;;5057651;28;1637;-70
2022/01/05 08:51:58;;;;;;;;;;;21.80;54.50;;;;;;5075070;28;1897;-70
2022/01/05 08:54:24;;;;;;;;;;;21.90;54.40;;;;;;5056210;28;1650;-70
2022/01/05 08:56:50;;;;;;;;;;;21.80;54.40;;;;;;5075560;28;1612;-68
2022/01/05 08:59:15;;;;;;;;;;;21.90;54.40;;;;;;5074818;28;1645;-68
2022/01/05 09:01:43;;;;;;;;;;;21.90;54.40;;;;;;5067043;28;1529;-68
2022/01/05 09:04:08;;;;;;;;;;;21.90;54.50;;;;;;5068558;28;1453;-68
2022/01/05 09:06:33;;;;;;;;;;;21.90;54.50;;;;;;5075313;28;1659;-68
2022/01/05 09:08:59;;;;;;;;;;;21.90;54.50;;;;;;5069971;28;1661;-70
2022/01/05 09:11:24;;;;;;;;;;;21.90;54.60;;;;;;5057095;28;1259;-71
2022/01/05 09:13:50;;;;;;;;;;;21.90;54.60;;;;;;5073919;28;1906;-70
2022/01/05 09:16:15;;;;;;;;;;;21.90;54.70;;;;;;5074799;28;1577;-70
2022/01/05 09:18:41;;;;;;;;;;;21.90;54.70;;;;;;5074744;28;1455;-70
2022/01/05 09:21:06;;;;;;;;;;;21.90;54.70;;;;;;5056355;28;1584;-70
2022/01/05 09:23:32;;;;;;;;;;;21.80;54.60;;;;;;5073751;28;1725;-68
2022/01/05 09:25:57;;;;;;;;;;;21.90;54.60;;;;;;5057005;28;1359;-70
2022/01/05 09:28:23;;;;;;;;;;;21.80;54.60;;;;;;5074728;28;1560;-70
2022/01/05 09:30:48;;;;;;;;;;;21.80;54.60;;;;;;5073930;28;1386;-68
2022/01/05 09:33:14;;;;;;;;;;;21.80;54.60;;;;;;5073094;28;1907;-68
2022/01/05 09:35:40;;;;;;;;;;;21.80;54.70;;;;;;5074386;28;1666;-68
2022/01/05 09:43:14;;;;;;;;;;;21.70;54.80;;;;;;5057074;28;1425;-70
2022/01/05 09:45:50;;;;;;;;;;;21.70;54.80;;;;;;5053785;28;1371;-69
2022/01/05 09:48:37;;;;;;;;;;;21.70;54.90;;;;;;5040534;28;1478;-69
2022/01/05 09:51:03;;;;;;;;;;;21.70;55.00;;;;;;5056484;28;1231;-69
2022/01/05 09:53:29;;;;;;;;;;;21.60;55.00;;;;;;5073293;28;1898;-69
2022/01/05 09:55:55;;;;;;;;;;;21.60;55.00;;;;;;5055154;28;1637;-69
2022/01/05 09:58:21;;;;;;;;;;;21.60;55.10;;;;;;5073286;28;1650;-69
2022/01/05 10:00:47;;;;;;;;;;;21.60;55.20;;;;;;5055462;28;1634;-69
2022/01/05 10:03:14;;;;;;;;;;;21.60;55.30;;;;;;5060007;28;1667;-70
2022/01/05 10:05:40;;;;;;;;;;;21.50;55.30;;;;;;5056112;28;1462;-71
2022/01/05 10:08:05;;;;;;;;;;;21.50;55.30;;;;;;5073836;28;1419;-69
2022/01/05 10:10:31;;;;;;;;;;;21.50;55.40;;;;;;5073485;28;1708;-69
2022/01/05 10:12:56;;;;;;;;;;;21.40;55.50;;;;;;5071223;28;1897;-69
2022/01/05 10:15:22;;;;;;;;;;;21.40;55.50;;;;;;5029072;28;2152;-70
2022/01/05 10:17:47;;;;;;;;;;;21.40;55.60;;;;;;5026265;28;1876;-70
2022/01/05 10:20:13;;;;;;;;;;;21.40;55.60;;;;;;5051354;28;1397;-71
2022/01/05 10:22:42;;;;;;;;;;;21.40;55.70;;;;;;5051779;28;1711;-69
2022/01/05 10:25:08;;;;;;;;;;;21.40;55.80;;;;;;5034386;28;1395;-69
2022/01/05 10:27:34;;;;;;;;;;;21.30;55.80;;;;;;5049778;28;1442;-69
2022/01/05 10:30:00;;;;;;;;;;;21.30;55.80;;;;;;5035407;28;1413;-68
2022/01/05 10:32:26;;;;;;;;;;;21.30;55.80;;;;;;5049285;28;2021;-69
2022/01/05 10:35:11;;;;;;;;;;;21.30;55.90;;;;;;5036807;28;1245;-70
2022/01/05 10:37:38;;;;;;;;;;;21.30;55.90;;;;;;5063669;28;1680;-70
2022/01/05 10:40:03;;;;;;;;;;;21.20;55.90;;;;;;5073103;28;1380;-70
2022/01/05 10:42:29;;;;;;;;;;;21.30;56.00;;;;;;5072645;28;1654;-70
2022/01/05 10:44:54;;;;;;;;;;;21.20;55.90;;;;;;5054426;28;1579;-70
2022/01/05 10:47:20;;;;;;;;;;;21.20;56.00;;;;;;5052427;28;1102;-70
2022/01/05 10:49:45;;;;;;;;;;;21.20;56.00;;;;;;5067550;28;1409;-70
2022/01/05 10:52:24;;;;;;;;;;;21.20;56.00;;;;;;5071313;28;1987;-70
2022/01/05 10:54:49;;;;;;;;;;;21.20;56.10;;;;;;5053392;28;1428;-70
2022/01/05 10:57:15;;;;;;;;;;;21.20;56.10;;;;;;5071982;28;1693;-70
2022/01/05 10:59:44;;;;;;;;;;;21.20;56.10;;;;;;5072246;28;1681;-70
2022/01/05 11:02:38;;;;;;;;;;;21.20;56.20;;;;;;5059544;28;1479;-70
2022/01/05 11:05:13;;;;;;;;;;;21.10;56.10;;;;;;5046828;28;1634;-70
2022/01/05 11:07:39;;;;;;;;;;;21.10;56.20;;;;;;5053838;28;1627;-70
2022/01/05 11:10:11;;;;;;;;;;;21.20;56.20;;;;;;5049325;28;1428;-70
2022/01/05 11:12:37;;;;;;;;;;;21.20;56.20;;;;;;5054336;28;1898;-70
2022/01/05 11:15:22;;;;;;;;;;;21.10;56.20;;;;;;5036073;28;1541;-70
2022/01/05 11:18:08;;;;;;;;;;;21.10;56.30;;;;;;5047119;28;1261;-70
2022/01/05 11:20:35;;;;;;;;;;;21.10;56.30;;;;;;5072335;28;1357;-69
2022/01/05 11:23:00;;;;;;;;;;;21.10;56.40;;;;;;5071669;28;1670;-69
2022/01/05 11:25:26;;;;;;;;;;;21.10;56.30;;;;;;5052485;28;1994;-70
2022/01/05 11:27:51;;;;;;;;;;;21.10;56.40;;;;;;5049026;28;1477;-69
2022/01/05 11:30:16;;;;;;;;;;;21.10;56.40;;;;;;5049849;28;1692;-69
2022/01/05 11:32:42;;;;;;;;;;;21.10;56.40;;;;;;5052556;28;1956;-69
2022/01/05 11:35:07;;;;;;;;;;;21.10;56.30;;;;;;5054008;28;1691;-69
2022/01/05 11:37:34;;;;;;;;;;;21.10;56.30;;;;;;5059402;28;1127;-69
2022/01/05 11:40:01;;;;;;;;;;;21.10;56.30;;;;;;5052636;28;1397;-69
2022/01/05 11:42:27;;;;;;;;;;;21.10;56.20;;;;;;5044962;28;1388;-69
2022/01/05 11:44:57;;;;;;;;;;;21.10;56.20;;;;;;5058916;28;1381;-69
2022/01/05 11:47:26;;;;;;;;;;;21.20;56.20;;;;;;5055029;28;1605;-69
2022/01/05 11:49:52;;;;;;;;;;;21.20;56.10;;;;;;5055177;28;1586;-69
2022/01/05 11:52:18;;;;;;;;;;;21.20;56.10;;;;;;5072361;28;1956;-69
2022/01/05 11:54:59;;;;;;;;;;;21.20;56.70;;;;;;5053465;28;1610;-69
2022/01/05 11:57:25;;;;;;;;;;;21.20;56.10;;;;;;5054469;28;1396;-69
2022/01/05 11:59:50;;;;;;;;;;;21.20;56.00;;;;;;5071755;28;1498;-69
2022/01/05 12:02:17;;;;;;;;;;;21.20;56.10;;;;;;5038232;28;1306;-69
2022/01/05 12:04:56;;;;;;;;;;;21.20;56.00;;;;;;5065705;28;1450;-69
2022/01/05 12:07:53;;;;;;;;;;;21.20;56.10;;;;;;5066456;28;1446;-69
2022/01/05 12:10:21;;;;;;;;;;;21.20;56.10;;;;;;5042422;28;1575;-69
2022/01/05 12:12:56;;;;;;;;;;;21.20;56.10;;;;;;5038677;28;1902;-69
2022/01/05 12:15:43;;;;;;;;;;;21.20;56.10;;;;;;5069883;28;1502;-69
2022/01/05 12:18:09;;;;;;;;;;;21.20;56.10;;;;;;5051543;28;1176;-69
2022/01/05 12:20:35;;;;;;;;;;;21.20;56.20;;;;;;5036234;28;1563;-70
2022/01/05 12:23:14;;;;;;;;;;;21.10;56.10;;;;;;5036461;28;1338;-69
2022/01/05 12:25:39;;;;;;;;;;;21.10;56.30;;;;;;5052543;28;1392;-70
2022/01/05 12:28:05;;;;;;;;;;;21.10;56.40;;;;;;5037109;28;1735;-68
2022/01/05 12:30:31;;;;;;;;;;;21.10;56.40;;;;;;5054473;28;1396;-68
2022/01/05 12:33:01;;;;;;;;;;;21.10;56.40;;;;;;5035986;28;1964;-69
2022/01/05 12:35:27;;;;;;;;;;;21.10;56.40;;;;;;5054848;28;1457;-69
2022/01/05 12:37:56;;;;;;;;;;;21.10;56.40;;;;;;5055171;28;1208;-69
2022/01/05 12:40:21;;;;;;;;;;;21.10;56.40;;;;;;5054744;28;1599;-70
2022/01/05 12:42:47;;;;;;;;;;;21.10;56.50;;;;;;5055193;28;1310;-70
2022/01/05 12:45:31;;;;;;;;;;;21.10;56.50;;;;;;5054443;28;1585;-70
2022/01/05 12:47:56;;;;;;;;;;;21.10;56.50;;;;;;5054589;28;1315;-69
2022/01/05 12:50:23;;;;;;;;;;;21.00;56.50;;;;;;5054547;28;1306;-70
2022/01/05 12:52:49;;;;;;;;;;;21.10;56.50;;;;;;5035490;28;1971;-70
2022/01/05 12:55:16;;;;;;;;;;;21.00;56.50;;;;;;5072323;22;1943;-72
2022/01/05 12:57:42;;;;;;;;;;;21.00;56.60;;;;;;5037116;28;1612;-71
2022/01/05 13:00:08;;;;;;;;;;;21.00;56.50;;;;;;5054826;28;1228;-69
2022/01/05 13:02:33;;;;;;;;;;;21.00;56.60;;;;;;5037119;28;1459;-71
2022/01/05 13:05:00;;;;;;;;;;;21.00;56.60;;;;;;5047945;28;1288;-71
2022/01/05 13:07:25;;;;;;;;;;;21.00;56.60;;;;;;5070498;28;1424;-70
2022/01/05 13:09:52;;;;;;;;;;;21.00;56.60;;;;;;5057284;28;1491;-70
2022/01/05 13:12:18;;;;;;;;;;;21.00;57.10;;;;;;5057093;28;1942;-70
2022/01/05 13:14:45;;;;;;;;;;;21.00;56.80;;;;;;5056823;28;1704;-69
2022/01/05 13:17:31;;;;;;;;;;;21.10;56.70;;;;;;5053125;28;1985;-70
2022/01/05 13:20:03;;;;;;;;;;;21.10;56.70;;;;;;5062052;28;1490;-70
2022/01/05 13:22:29;;;;;;;;;;;21.00;56.60;;;;;;5068577;28;1614;-71
2022/01/05 13:25:11;;;;;;;;;;;21.10;56.70;;;;;;5067184;28;1410;-68
2022/01/05 13:27:37;;;;;;;;;;;21.00;56.70;;;;;;5046788;28;1189;-68
2022/01/05 13:30:06;;;;;;;;;;;21.00;56.60;;;;;;5065046;28;1290;-70
2022/01/05 13:32:32;;;;;;;;;;;21.00;56.60;;;;;;5067382;28;1901;-70
2022/01/05 13:35:05;;;;;;;;;;;21.00;56.70;;;;;;5067580;28;1893;-68
2022/01/05 13:37:31;;;;;;;;;;;21.00;56.70;;;;;;5049968;28;1315;-70
2022/01/05 13:39:59;;;;;;;;;;;21.00;56.70;;;;;;5070367;28;1207;-69
2022/01/05 13:42:28;;;;;;;;;;;21.00;56.70;;;;;;5065256;28;1211;-69
2022/01/05 13:44:54;;;;;;;;;;;21.00;56.70;;;;;;5049372;28;1384;-69
2022/01/05 13:47:19;;;;;;;;;;;21.00;56.70;;;;;;5067775;28;1259;-69
2022/01/05 13:50:03;;;;;;;;;;;21.00;56.70;;;;;;5056471;28;1386;-69
2022/01/05 13:52:29;;;;;;;;;;;21.00;56.70;;;;;;5074250;28;1957;-69
2022/01/05 13:54:54;;;;;;;;;;;21.00;56.70;;;;;;5056103;28;1258;-70
2022/01/05 13:57:29;;;;;;;;;;;21.00;56.70;;;;;;5074338;28;1271;-70
2022/01/05 13:59:59;;;;;;;;;;;21.00;56.70;;;;;;5074327;28;1601;-69
2022/01/05 14:02:24;;;;;;;;;;;20.90;56.70;;;;;;5056479;28;1785;-71
2022/01/05 14:04:50;;;;;;;;;;;21.00;56.70;;;;;;5074110;28;1649;-70
2022/01/05 14:07:17;;;;;;;;;;;21.00;56.80;;;;;;5056342;28;1565;-70
2022/01/05 14:09:42;;;;;;;;;;;20.90;56.70;;;;;;5074134;28;1409;-72
2022/01/05 14:12:26;;;;;;;;;;;20.90;56.70;;;;;;5036174;28;1901;-72
2022/01/05 14:14:55;;;;;;;;;;;20.90;56.70;;;;;;5073657;28;1762;-71
2022/01/05 14:17:21;;;;;;;;;;;20.90;56.70;;;;;;5073921;28;1664;-73
2022/01/05 14:19:46;;;;;;;;;;;20.90;56.80;;;;;;5056115;28;1306;-73
2022/01/05 14:22:17;;;;;;;;;;;20.90;56.80;;;;;;5073798;28;1634;-71
2022/01/05 14:24:45;;;;;;;;;;;20.90;56.80;;;;;;5073620;28;1298;-72
2022/01/05 14:27:14;;;;;;;;;;;20.90;56.80;;;;;;5056119;28;1687;-71
2022/01/05 14:29:40;;;;;;;;;;;20.90;56.90;;;;;;5051698;28;2285;-72
2022/01/05 14:32:06;;;;;;;;;;;20.90;56.80;;;;;;5065830;28;1957;-71
2022/01/05 14:34:37;;;;;;;;;;;20.90;56.80;;;;;;5055501;28;1586;-70